DAOI

Ech Cheliff Airport

Algeria
TAF DAOI 260500Z 2606/2706 VRB02KT 8000 SCT020 FEW026CB BKN030 TEMPO 2606/2612 04015G25KT 4000 -TSSHRA BECMG 2612/2614 04015KT TEMPO 2612/2618 5000 TSRA
Issued Valid From Valid To
Apr-26 @ 05:00 UTC
(59 minutes ago)
Apr-26 @ 06:00 UTC
(in a minute)
Apr-27 @ 06:00 UTC
(in 24 hours)
Apr-26 @ 06:00 to Apr-26 @ 12:00
TAF DAOI 260500Z 2606/2706 VRB02KT 8000 SCT020 FEW026CB BKN030
Wind Visibility Clouds
Variable at 2 knots 7,998 meters
  • Scattered at 2,000' AGL
  • Few at 2,600' AGL
  • Broken at 3,000' AGL
Temporary Apr-26 @ 06:00 to Apr-26 @ 12:00
TEMPO 2606/2612 04015G25KT 4000 -TSSHRA
Wind Visibility Conditions
40° at 15 knots
 Gusting to 25 knots
4,007 meters
  • Rain
  • Thunderstorm
Temporary Apr-26 @ 12:00 to Apr-26 @ 18:00
TEMPO 2612/2618 5000 TSRA
Visibility Conditions
5,005 meters
  • Thunderstorm
  • Rain
Becoming Apr-26 @ 12:00 to Apr-27 @ 06:00
BECMG 2612/2614 04015KT
Wind Visibility Clouds
40° at 15 knots 7,998 meters
  • Scattered at 2,000' AGL
  • Few at 2,600' AGL
  • Broken at 3,000' AGL
TAF DAOI 260500Z 2606/2706 VRB02KT 8000 SCT020 FEW026CB BKN030 TEMPO 2606/2612 04015G25KT 4000 -TSSHRA BECMG 2612/2614 04015KT TEMPO 2612/2618 5000 TSRA
Issued Apr-26 @ 05:00 UTC
(59 minutes ago)
Valid From Apr-26 @ 06:00 UTC
(in a minute)
Valid To Apr-27 @ 06:00 UTC
(in 24 hours)
Apr-26 @ 06:00 - Apr-26 @ 12:00
Wind Visibility
Variable at 2 knots 7,998 meters
Clouds
  • Scattered at 2,000' AGL
  • Few at 2,600' AGL
  • Broken at 3,000' AGL
Temporary Apr-26 @ 06:00 - Apr-26 @ 12:00
Wind Visibility
40° at 15 knots
 Gusting to 25 knots
4,007 meters
Conditions
  • Rain
  • Thunderstorm
Temporary Apr-26 @ 12:00 - Apr-26 @ 18:00
Conditions
  • Thunderstorm
  • Rain
Becoming Apr-26 @ 12:00 - Apr-27 @ 06:00
Wind Visibility
40° at 15 knots 7,998 meters
Clouds
  • Scattered at 2,000' AGL
  • Few at 2,600' AGL
  • Broken at 3,000' AGL